Terminal Aerodrome Forecast
Issued by NWS

Home | Current Version | Previous Version | Text Only | Print | Product List | Glossary On
Versions: 1 2 3 4 5 6 7 8 9 10 11 12 13 14 15 16 17 18
000
FTUS43 KILX 262058 AAA
TAFBMI
TAF AMD
KBMI 262058Z 2621/2718 21011KT P6SM SCT060 BKN250
     FM270200 18008KT P6SM SCT080 BKN150
     FM271000 18009KT P6SM VCTS SCT050CB BKN110
     FM271300 19011KT 6SM -SHRA BR BKN050 PROB30 2713/2716 3SM TSRA
      BR BKN030CB=

USA.gov is the U.S. government's official web portal to all federal, state and local government web resources and services.